Sandy Spring, Maryland
Current Conditions -  °F | °C
As of 2:35 PM on Thursday 23 Oct 2014 (Local Time) from KGAI Reporting Station
Overcast Overcast  
Wind Chill: 61°   Ceiling: 3900
Heat Index: 61°   Visibility: 10mi
Dew Point: 45°   Wind: 15mph
Humidity: 55%   Direction: 320°NW
Pressure: 29.89"   Gusts: 23mph
Location:  39.15°N, 77.03°W
Report Text: KGAI 231835Z 32013G20KT 10SM BKN039 BKN047 OVC055 16/07 A2989 RMK AO1
Loading
Personal Weather Stations






























Interactive Weather Map
Tropical Storm Tracking
New forecast layout! Learn more

10-Day Weather Forecast

Advertisements
Track Severe Weather on mobile